sensor_id;sensor_type;location;lat;lon;timestamp;P1;durP1;ratioP1;P2;durP2;ratioP2
16037;SDS011;8123;50.906;6.172;2022-08-30T00:01:28;12.93;;;5.13;;
16037;SDS011;8123;50.906;6.172;2022-08-30T00:03:55;35.53;;;6.60;;
16037;SDS011;8123;50.906;6.172;2022-08-30T00:06:22;9.37;;;5.47;;
16037;SDS011;8123;50.906;6.172;2022-08-30T00:08:49;10.57;;;5.60;;
16037;SDS011;8123;50.906;6.172;2022-08-30T00:11:18;14.70;;;5.23;;
16037;SDS011;8123;50.906;6.172;2022-08-30T00:13:49;23.57;;;5.10;;
16037;SDS011;8123;50.906;6.172;2022-08-30T00:16:16;12.33;;;5.00;;
16037;SDS011;8123;50.906;6.172;2022-08-30T00:18:43;8.23;;;4.70;;
16037;SDS011;8123;50.906;6.172;2022-08-30T00:21:09;13.73;;;4.90;;
16037;SDS011;8123;50.906;6.172;2022-08-30T00:23:36;11.50;;;5.73;;
16037;SDS011;8123;50.906;6.172;2022-08-30T00:26:02;23.70;;;6.00;;
16037;SDS011;8123;50.906;6.172;2022-08-30T00:28:28;13.83;;;5.00;;
16037;SDS011;8123;50.906;6.172;2022-08-30T00:30:55;20.97;;;5.27;;
16037;SDS011;8123;50.906;6.172;2022-08-30T00:33:21;12.07;;;4.33;;
16037;SDS011;8123;50.906;6.172;2022-08-30T00:35:46;16.63;;;5.03;;
16037;SDS011;8123;50.906;6.172;2022-08-30T00:38:13;8.30;;;4.93;;
16037;SDS011;8123;50.906;6.172;2022-08-30T00:40:40;18.90;;;5.73;;
16037;SDS011;8123;50.906;6.172;2022-08-30T00:43:09;14.47;;;5.40;;
16037;SDS011;8123;50.906;6.172;2022-08-30T00:45:49;16.87;;;5.33;;
16037;SDS011;8123;50.906;6.172;2022-08-30T00:48:15;16.10;;;5.33;;
16037;SDS011;8123;50.906;6.172;2022-08-30T00:50:42;10.23;;;5.30;;
16037;SDS011;8123;50.906;6.172;2022-08-30T00:53:33;11.07;;;4.50;;
16037;SDS011;8123;50.906;6.172;2022-08-30T00:56:01;10.37;;;4.77;;
16037;SDS011;8123;50.906;6.172;2022-08-30T00:58:30;15.70;;;5.13;;
16037;SDS011;8123;50.906;6.172;2022-08-30T01:00:58;19.70;;;5.23;;
16037;SDS011;8123;50.906;6.172;2022-08-30T01:03:25;14.57;;;5.43;;
16037;SDS011;8123;50.906;6.172;2022-08-30T01:05:51;21.83;;;5.03;;
16037;SDS011;8123;50.906;6.172;2022-08-30T01:08:18;20.87;;;5.07;;
16037;SDS011;8123;50.906;6.172;2022-08-30T01:10:46;34.00;;;6.63;;
16037;SDS011;8123;50.906;6.172;2022-08-30T01:13:12;12.53;;;4.77;;
16037;SDS011;8123;50.906;6.172;2022-08-30T01:15:39;13.50;;;4.50;;
16037;SDS011;8123;50.906;6.172;2022-08-30T01:18:07;7.30;;;4.43;;
16037;SDS011;8123;50.906;6.172;2022-08-30T01:20:39;16.70;;;4.87;;
16037;SDS011;8123;50.906;6.172;2022-08-30T01:23:31;14.80;;;4.63;;
16037;SDS011;8123;50.906;6.172;2022-08-30T01:25:59;17.20;;;5.03;;
16037;SDS011;8123;50.906;6.172;2022-08-30T01:28:27;10.43;;;5.00;;
16037;SDS011;8123;50.906;6.172;2022-08-30T01:30:55;14.03;;;4.73;;
16037;SDS011;8123;50.906;6.172;2022-08-30T01:33:21;9.13;;;4.30;;
16037;SDS011;8123;50.906;6.172;2022-08-30T01:38:13;18.03;;;4.90;;
16037;SDS011;8123;50.906;6.172;2022-08-30T01:40:41;11.43;;;5.07;;
16037;SDS011;8123;50.906;6.172;2022-08-30T01:43:07;12.40;;;5.47;;
16037;SDS011;8123;50.906;6.172;2022-08-30T01:45:35;35.30;;;5.20;;
16037;SDS011;8123;50.906;6.172;2022-08-30T01:48:00;12.63;;;5.17;;
16037;SDS011;8123;50.906;6.172;2022-08-30T01:50:26;16.73;;;4.70;;
16037;SDS011;8123;50.906;6.172;2022-08-30T01:52:52;15.13;;;4.50;;
16037;SDS011;8123;50.906;6.172;2022-08-30T01:55:17;21.83;;;4.33;;
16037;SDS011;8123;50.906;6.172;2022-08-30T01:57:43;8.97;;;5.10;;
16037;SDS011;8123;50.906;6.172;2022-08-30T02:00:11;12.80;;;4.87;;
16037;SDS011;8123;50.906;6.172;2022-08-30T02:02:37;18.17;;;5.67;;
16037;SDS011;8123;50.906;6.172;2022-08-30T02:05:03;21.90;;;4.60;;
16037;SDS011;8123;50.906;6.172;2022-08-30T02:07:30;10.70;;;4.90;;
16037;SDS011;8123;50.906;6.172;2022-08-30T02:09:56;35.23;;;4.83;;
16037;SDS011;8123;50.906;6.172;2022-08-30T02:12:21;17.03;;;4.83;;
16037;SDS011;8123;50.906;6.172;2022-08-30T02:14:47;14.67;;;5.03;;
16037;SDS011;8123;50.906;6.172;2022-08-30T02:17:13;21.57;;;4.40;;
16037;SDS011;8123;50.906;6.172;2022-08-30T02:19:40;18.13;;;5.20;;
16037;SDS011;8123;50.906;6.172;2022-08-30T02:22:06;12.63;;;5.33;;
16037;SDS011;8123;50.906;6.172;2022-08-30T02:24:32;19.67;;;5.30;;
16037;SDS011;8123;50.906;6.172;2022-08-30T02:26:58;14.53;;;4.63;;
16037;SDS011;8123;50.906;6.172;2022-08-30T02:29:24;12.80;;;4.87;;
16037;SDS011;8123;50.906;6.172;2022-08-30T02:31:50;10.03;;;4.50;;
16037;SDS011;8123;50.906;6.172;2022-08-30T02:34:16;29.53;;;5.77;;
16037;SDS011;8123;50.906;6.172;2022-08-30T02:36:43;15.00;;;4.77;;
16037;SDS011;8123;50.906;6.172;2022-08-30T02:39:10;10.47;;;4.70;;
16037;SDS011;8123;50.906;6.172;2022-08-30T02:41:36;12.73;;;4.53;;
16037;SDS011;8123;50.906;6.172;2022-08-30T02:44:03;15.10;;;5.17;;
16037;SDS011;8123;50.906;6.172;2022-08-30T02:46:30;13.17;;;5.27;;
16037;SDS011;8123;50.906;6.172;2022-08-30T02:48:55;19.60;;;5.00;;
16037;SDS011;8123;50.906;6.172;2022-08-30T02:51:21;14.73;;;4.73;;
16037;SDS011;8123;50.906;6.172;2022-08-30T02:53:47;15.20;;;5.70;;
16037;SDS011;8123;50.906;6.172;2022-08-30T02:56:14;20.50;;;4.53;;
16037;SDS011;8123;50.906;6.172;2022-08-30T02:58:40;19.23;;;4.70;;
16037;SDS011;8123;50.906;6.172;2022-08-30T03:01:07;9.70;;;5.03;;
16037;SDS011;8123;50.906;6.172;2022-08-30T03:03:34;13.50;;;4.30;;
16037;SDS011;8123;50.906;6.172;2022-08-30T03:06:00;18.30;;;5.83;;
16037;SDS011;8123;50.906;6.172;2022-08-30T03:08:27;20.23;;;5.40;;
16037;SDS011;8123;50.906;6.172;2022-08-30T03:10:53;16.07;;;5.17;;
16037;SDS011;8123;50.906;6.172;2022-08-30T03:13:21;13.23;;;5.73;;
16037;SDS011;8123;50.906;6.172;2022-08-30T03:15:48;13.80;;;5.23;;
16037;SDS011;8123;50.906;6.172;2022-08-30T03:18:14;20.33;;;5.03;;
16037;SDS011;8123;50.906;6.172;2022-08-30T03:20:44;13.60;;;5.10;;
16037;SDS011;8123;50.906;6.172;2022-08-30T03:23:10;9.60;;;4.70;;
16037;SDS011;8123;50.906;6.172;2022-08-30T03:25:35;11.17;;;4.83;;
16037;SDS011;8123;50.906;6.172;2022-08-30T03:28:03;18.27;;;5.80;;
16037;SDS011;8123;50.906;6.172;2022-08-30T03:30:29;8.20;;;5.80;;
16037;SDS011;8123;50.906;6.172;2022-08-30T03:32:55;15.37;;;5.57;;
16037;SDS011;8123;50.906;6.172;2022-08-30T03:35:21;9.90;;;5.33;;
16037;SDS011;8123;50.906;6.172;2022-08-30T03:37:47;18.07;;;5.30;;
16037;SDS011;8123;50.906;6.172;2022-08-30T03:40:14;5.07;;;4.53;;
16037;SDS011;8123;50.906;6.172;2022-08-30T03:42:42;16.77;;;6.50;;
16037;SDS011;8123;50.906;6.172;2022-08-30T03:45:08;11.67;;;5.50;;
16037;SDS011;8123;50.906;6.172;2022-08-30T03:47:34;11.60;;;5.77;;
16037;SDS011;8123;50.906;6.172;2022-08-30T03:50:00;17.07;;;5.40;;
16037;SDS011;8123;50.906;6.172;2022-08-30T03:52:26;18.43;;;5.93;;
16037;SDS011;8123;50.906;6.172;2022-08-30T03:54:52;13.10;;;5.80;;
16037;SDS011;8123;50.906;6.172;2022-08-30T03:57:18;13.20;;;5.40;;
16037;SDS011;8123;50.906;6.172;2022-08-30T03:59:43;20.97;;;5.43;;
16037;SDS011;8123;50.906;6.172;2022-08-30T04:02:09;13.73;;;6.23;;
16037;SDS011;8123;50.906;6.172;2022-08-30T04:04:35;16.53;;;5.03;;
16037;SDS011;8123;50.906;6.172;2022-08-30T04:07:01;15.57;;;5.47;;
16037;SDS011;8123;50.906;6.172;2022-08-30T04:09:26;16.00;;;6.00;;
16037;SDS011;8123;50.906;6.172;2022-08-30T04:11:52;14.53;;;5.43;;
16037;SDS011;8123;50.906;6.172;2022-08-30T04:14:21;14.27;;;5.17;;
16037;SDS011;8123;50.906;6.172;2022-08-30T04:16:47;24.03;;;5.37;;
16037;SDS011;8123;50.906;6.172;2022-08-30T04:19:13;22.07;;;5.57;;
16037;SDS011;8123;50.906;6.172;2022-08-30T04:21:39;15.77;;;5.40;;
16037;SDS011;8123;50.906;6.172;2022-08-30T04:24:05;12.47;;;5.60;;
16037;SDS011;8123;50.906;6.172;2022-08-30T04:26:30;16.93;;;6.20;;
16037;SDS011;8123;50.906;6.172;2022-08-30T04:28:56;15.60;;;6.33;;
16037;SDS011;8123;50.906;6.172;2022-08-30T04:31:23;9.23;;;5.57;;
16037;SDS011;8123;50.906;6.172;2022-08-30T04:33:51;23.77;;;5.27;;
16037;SDS011;8123;50.906;6.172;2022-08-30T04:36:16;13.73;;;5.00;;
16037;SDS011;8123;50.906;6.172;2022-08-30T04:38:42;10.83;;;5.40;;
16037;SDS011;8123;50.906;6.172;2022-08-30T04:41:12;13.67;;;5.90;;
16037;SDS011;8123;50.906;6.172;2022-08-30T04:43:40;14.00;;;5.33;;
16037;SDS011;8123;50.906;6.172;2022-08-30T04:46:07;25.43;;;6.00;;
16037;SDS011;8123;50.906;6.172;2022-08-30T04:48:34;11.13;;;5.23;;
16037;SDS011;8123;50.906;6.172;2022-08-30T04:51:02;19.87;;;5.63;;
16037;SDS011;8123;50.906;6.172;2022-08-30T04:53:29;19.20;;;6.30;;
16037;SDS011;8123;50.906;6.172;2022-08-30T04:55:55;12.17;;;4.73;;
16037;SDS011;8123;50.906;6.172;2022-08-30T04:58:22;12.80;;;5.73;;
16037;SDS011;8123;50.906;6.172;2022-08-30T05:00:48;12.67;;;5.93;;
16037;SDS011;8123;50.906;6.172;2022-08-30T05:03:13;17.73;;;5.90;;
16037;SDS011;8123;50.906;6.172;2022-08-30T05:05:40;17.00;;;5.83;;
16037;SDS011;8123;50.906;6.172;2022-08-30T05:08:11;25.70;;;5.10;;
16037;SDS011;8123;50.906;6.172;2022-08-30T05:10:39;12.30;;;4.90;;
16037;SDS011;8123;50.906;6.172;2022-08-30T05:13:07;19.20;;;6.47;;
16037;SDS011;8123;50.906;6.172;2022-08-30T05:15:33;22.17;;;6.07;;
16037;SDS011;8123;50.906;6.172;2022-08-30T05:17:59;15.57;;;6.03;;
16037;SDS011;8123;50.906;6.172;2022-08-30T05:20:25;13.13;;;5.47;;
16037;SDS011;8123;50.906;6.172;2022-08-30T05:22:51;23.03;;;6.00;;
16037;SDS011;8123;50.906;6.172;2022-08-30T05:25:28;24.93;;;5.40;;
16037;SDS011;8123;50.906;6.172;2022-08-30T05:27:55;14.73;;;5.20;;
16037;SDS011;8123;50.906;6.172;2022-08-30T05:30:26;22.50;;;5.73;;
16037;SDS011;8123;50.906;6.172;2022-08-30T05:32:55;14.70;;;6.23;;
16037;SDS011;8123;50.906;6.172;2022-08-30T05:35:22;26.20;;;6.30;;
16037;SDS011;8123;50.906;6.172;2022-08-30T05:37:48;36.97;;;6.40;;
16037;SDS011;8123;50.906;6.172;2022-08-30T05:40:15;16.33;;;6.23;;
16037;SDS011;8123;50.906;6.172;2022-08-30T05:42:41;13.40;;;5.80;;
16037;SDS011;8123;50.906;6.172;2022-08-30T05:45:08;25.70;;;6.40;;
16037;SDS011;8123;50.906;6.172;2022-08-30T05:47:35;21.90;;;6.53;;
16037;SDS011;8123;50.906;6.172;2022-08-30T05:50:01;21.90;;;6.50;;
16037;SDS011;8123;50.906;6.172;2022-08-30T05:52:27;19.30;;;6.20;;
16037;SDS011;8123;50.906;6.172;2022-08-30T05:54:54;26.23;;;5.63;;
16037;SDS011;8123;50.906;6.172;2022-08-30T05:57:23;24.20;;;5.37;;
16037;SDS011;8123;50.906;6.172;2022-08-30T05:59:49;26.97;;;5.70;;
16037;SDS011;8123;50.906;6.172;2022-08-30T06:02:15;25.10;;;6.37;;
16037;SDS011;8123;50.906;6.172;2022-08-30T06:04:41;23.70;;;6.53;;
16037;SDS011;8123;50.906;6.172;2022-08-30T06:07:07;24.67;;;6.67;;
16037;SDS011;8123;50.906;6.172;2022-08-30T06:09:34;33.37;;;6.40;;
16037;SDS011;8123;50.906;6.172;2022-08-30T06:12:00;29.67;;;6.10;;
16037;SDS011;8123;50.906;6.172;2022-08-30T06:14:25;40.53;;;6.60;;
16037;SDS011;8123;50.906;6.172;2022-08-30T06:16:51;32.93;;;6.23;;
16037;SDS011;8123;50.906;6.172;2022-08-30T06:19:18;25.40;;;5.80;;
16037;SDS011;8123;50.906;6.172;2022-08-30T06:21:47;21.00;;;6.20;;
16037;SDS011;8123;50.906;6.172;2022-08-30T06:24:14;15.47;;;5.67;;
16037;SDS011;8123;50.906;6.172;2022-08-30T06:26:41;17.30;;;6.70;;
16037;SDS011;8123;50.906;6.172;2022-08-30T06:29:09;21.77;;;5.80;;
16037;SDS011;8123;50.906;6.172;2022-08-30T06:31:37;20.10;;;5.63;;
16037;SDS011;8123;50.906;6.172;2022-08-30T06:34:03;44.20;;;6.83;;
16037;SDS011;8123;50.906;6.172;2022-08-30T06:36:29;30.60;;;6.67;;
16037;SDS011;8123;50.906;6.172;2022-08-30T06:38:56;20.63;;;6.00;;
16037;SDS011;8123;50.906;6.172;2022-08-30T06:41:26;21.73;;;5.40;;
16037;SDS011;8123;50.906;6.172;2022-08-30T06:43:54;17.20;;;6.70;;
16037;SDS011;8123;50.906;6.172;2022-08-30T06:46:22;14.33;;;6.20;;
16037;SDS011;8123;50.906;6.172;2022-08-30T06:48:53;24.33;;;6.70;;
16037;SDS011;8123;50.906;6.172;2022-08-30T06:51:21;27.73;;;7.10;;
16037;SDS011;8123;50.906;6.172;2022-08-30T06:53:48;15.60;;;6.60;;
16037;SDS011;8123;50.906;6.172;2022-08-30T06:56:14;24.57;;;6.90;;
16037;SDS011;8123;50.906;6.172;2022-08-30T06:58:40;17.43;;;6.27;;
16037;SDS011;8123;50.906;6.172;2022-08-30T07:01:06;14.00;;;5.60;;
16037;SDS011;8123;50.906;6.172;2022-08-30T07:03:35;13.90;;;6.90;;
16037;SDS011;8123;50.906;6.172;2022-08-30T07:06:01;16.70;;;6.50;;
16037;SDS011;8123;50.906;6.172;2022-08-30T07:08:27;27.00;;;6.80;;
16037;SDS011;8123;50.906;6.172;2022-08-30T07:10:53;25.20;;;6.97;;
16037;SDS011;8123;50.906;6.172;2022-08-30T07:13:20;22.03;;;7.50;;
16037;SDS011;8123;50.906;6.172;2022-08-30T07:15:48;15.47;;;6.40;;
16037;SDS011;8123;50.906;6.172;2022-08-30T07:18:14;15.33;;;6.70;;
16037;SDS011;8123;50.906;6.172;2022-08-30T07:21:04;15.87;;;6.50;;
16037;SDS011;8123;50.906;6.172;2022-08-30T07:23:31;15.83;;;6.77;;
16037;SDS011;8123;50.906;6.172;2022-08-30T07:25:57;14.30;;;6.57;;
16037;SDS011;8123;50.906;6.172;2022-08-30T07:28:23;16.07;;;5.70;;
16037;SDS011;8123;50.906;6.172;2022-08-30T07:30:48;9.20;;;6.00;;
16037;SDS011;8123;50.906;6.172;2022-08-30T07:33:14;13.83;;;6.77;;
16037;SDS011;8123;50.906;6.172;2022-08-30T07:35:39;14.67;;;6.33;;
16037;SDS011;8123;50.906;6.172;2022-08-30T07:38:05;13.07;;;6.27;;
16037;SDS011;8123;50.906;6.172;2022-08-30T07:40:31;16.33;;;5.80;;
16037;SDS011;8123;50.906;6.172;2022-08-30T07:42:57;17.90;;;6.03;;
16037;SDS011;8123;50.906;6.172;2022-08-30T07:45:26;15.97;;;6.40;;
16037;SDS011;8123;50.906;6.172;2022-08-30T07:47:51;14.17;;;6.03;;
16037;SDS011;8123;50.906;6.172;2022-08-30T07:50:17;14.33;;;5.23;;
16037;SDS011;8123;50.906;6.172;2022-08-30T07:52:42;21.83;;;5.60;;
16037;SDS011;8123;50.906;6.172;2022-08-30T07:55:08;6.80;;;4.87;;
16037;SDS011;8123;50.906;6.172;2022-08-30T07:57:34;18.87;;;6.50;;
16037;SDS011;8123;50.906;6.172;2022-08-30T07:59:59;8.30;;;5.07;;
16037;SDS011;8123;50.906;6.172;2022-08-30T08:02:25;10.17;;;5.10;;
16037;SDS011;8123;50.906;6.172;2022-08-30T08:04:51;8.30;;;4.80;;
16037;SDS011;8123;50.906;6.172;2022-08-30T08:07:17;12.27;;;4.40;;
16037;SDS011;8123;50.906;6.172;2022-08-30T08:09:43;11.00;;;5.77;;
16037;SDS011;8123;50.906;6.172;2022-08-30T08:12:08;16.63;;;5.80;;
16037;SDS011;8123;50.906;6.172;2022-08-30T08:14:34;13.10;;;4.80;;
16037;SDS011;8123;50.906;6.172;2022-08-30T08:17:00;11.67;;;4.90;;
16037;SDS011;8123;50.906;6.172;2022-08-30T08:19:26;12.53;;;5.23;;
16037;SDS011;8123;50.906;6.172;2022-08-30T08:21:52;8.20;;;4.70;;
16037;SDS011;8123;50.906;6.172;2022-08-30T08:24:24;18.80;;;4.60;;
16037;SDS011;8123;50.906;6.172;2022-08-30T08:26:51;10.40;;;4.70;;
16037;SDS011;8123;50.906;6.172;2022-08-30T08:29:17;21.40;;;4.80;;
16037;SDS011;8123;50.906;6.172;2022-08-30T08:31:43;12.33;;;4.60;;
16037;SDS011;8123;50.906;6.172;2022-08-30T08:34:11;9.87;;;4.83;;
16037;SDS011;8123;50.906;6.172;2022-08-30T08:36:37;14.17;;;5.90;;
16037;SDS011;8123;50.906;6.172;2022-08-30T08:39:05;16.13;;;5.70;;
16037;SDS011;8123;50.906;6.172;2022-08-30T08:46:59;12.63;;;4.40;;
16037;SDS011;8123;50.906;6.172;2022-08-30T08:49:28;12.70;;;3.90;;
16037;SDS011;8123;50.906;6.172;2022-08-30T08:51:53;21.30;;;5.23;;
16037;SDS011;8123;50.906;6.172;2022-08-30T08:54:45;20.53;;;5.27;;
16037;SDS011;8123;50.906;6.172;2022-08-30T08:57:16;12.87;;;5.37;;
16037;SDS011;8123;50.906;6.172;2022-08-30T08:59:43;12.47;;;4.27;;
16037;SDS011;8123;50.906;6.172;2022-08-30T09:02:21;10.53;;;4.73;;
16037;SDS011;8123;50.906;6.172;2022-08-30T09:04:59;12.40;;;3.80;;
16037;SDS011;8123;50.906;6.172;2022-08-30T09:07:29;13.53;;;4.50;;
16037;SDS011;8123;50.906;6.172;2022-08-30T09:09:59;12.73;;;4.10;;
16037;SDS011;8123;50.906;6.172;2022-08-30T09:12:25;10.63;;;4.53;;
16037;SDS011;8123;50.906;6.172;2022-08-30T09:14:54;17.90;;;4.90;;
16037;SDS011;8123;50.906;6.172;2022-08-30T09:17:25;11.10;;;3.87;;
16037;SDS011;8123;50.906;6.172;2022-08-30T09:22:22;11.57;;;4.60;;
16037;SDS011;8123;50.906;6.172;2022-08-30T09:24:52;13.00;;;4.10;;
16037;SDS011;8123;50.906;6.172;2022-08-30T09:27:36;14.90;;;4.67;;
16037;SDS011;8123;50.906;6.172;2022-08-30T09:30:17;13.27;;;4.20;;
16037;SDS011;8123;50.906;6.172;2022-08-30T09:32:59;16.60;;;4.33;;
16037;SDS011;8123;50.906;6.172;2022-08-30T09:35:34;10.90;;;4.00;;
16037;SDS011;8123;50.906;6.172;2022-08-30T09:38:04;9.53;;;4.63;;
16037;SDS011;8123;50.906;6.172;2022-08-30T09:40:36;9.50;;;3.83;;
16037;SDS011;8123;50.906;6.172;2022-08-30T09:43:08;8.60;;;3.97;;
16037;SDS011;8123;50.906;6.172;2022-08-30T09:45:39;18.60;;;4.27;;
16037;SDS011;8123;50.906;6.172;2022-08-30T09:48:28;8.70;;;5.00;;
16037;SDS011;8123;50.906;6.172;2022-08-30T09:53:32;10.40;;;4.53;;
16037;SDS011;8123;50.906;6.172;2022-08-30T09:56:07;5.87;;;4.20;;
16037;SDS011;8123;50.906;6.172;2022-08-30T10:01:38;7.97;;;4.03;;
16037;SDS011;8123;50.906;6.172;2022-08-30T10:04:23;4.80;;;3.40;;
16037;SDS011;8123;50.906;6.172;2022-08-30T10:18:15;10.40;;;4.10;;
16037;SDS011;8123;50.906;6.172;2022-08-30T10:24:04;6.03;;;3.40;;
16037;SDS011;8123;50.906;6.172;2022-08-30T10:26:35;6.70;;;4.07;;
16037;SDS011;8123;50.906;6.172;2022-08-30T10:29:18;7.43;;;3.70;;
16037;SDS011;8123;50.906;6.172;2022-08-30T10:34:40;11.47;;;3.47;;
16037;SDS011;8123;50.906;6.172;2022-08-30T10:37:15;5.70;;;3.70;;
16037;SDS011;8123;50.906;6.172;2022-08-30T10:40:03;6.20;;;3.33;;
16037;SDS011;8123;50.906;6.172;2022-08-30T10:42:53;7.27;;;3.83;;
16037;SDS011;8123;50.906;6.172;2022-08-30T10:45:22;7.23;;;4.07;;
16037;SDS011;8123;50.906;6.172;2022-08-30T10:47:59;9.43;;;4.03;;
16037;SDS011;8123;50.906;6.172;2022-08-30T10:50:33;9.20;;;3.73;;
16037;SDS011;8123;50.906;6.172;2022-08-30T10:56:12;12.07;;;4.10;;
16037;SDS011;8123;50.906;6.172;2022-08-30T10:58:44;3.83;;;2.93;;
16037;SDS011;8123;50.906;6.172;2022-08-30T11:12:34;5.53;;;3.50;;
16037;SDS011;8123;50.906;6.172;2022-08-30T11:15:17;13.93;;;4.37;;
16037;SDS011;8123;50.906;6.172;2022-08-30T11:17:53;6.70;;;3.70;;
16037;SDS011;8123;50.906;6.172;2022-08-30T11:26:00;3.50;;;3.13;;
16037;SDS011;8123;50.906;6.172;2022-08-30T11:33:39;7.60;;;3.53;;
16037;SDS011;8123;50.906;6.172;2022-08-30T11:36:06;20.63;;;4.00;;
16037;SDS011;8123;50.906;6.172;2022-08-30T11:41:06;13.03;;;3.43;;
16037;SDS011;8123;50.906;6.172;2022-08-30T11:49:05;12.53;;;4.00;;
16037;SDS011;8123;50.906;6.172;2022-08-30T12:00:24;5.93;;;3.57;;
16037;SDS011;8123;50.906;6.172;2022-08-30T12:03:00;8.63;;;4.00;;
16037;SDS011;8123;50.906;6.172;2022-08-30T12:10:41;12.73;;;3.20;;
16037;SDS011;8123;50.906;6.172;2022-08-30T12:16:20;12.10;;;4.30;;
16037;SDS011;8123;50.906;6.172;2022-08-30T12:18:45;13.03;;;4.53;;
16037;SDS011;8123;50.906;6.172;2022-08-30T12:21:26;6.90;;;4.00;;
16037;SDS011;8123;50.906;6.172;2022-08-30T12:24:04;8.93;;;4.73;;
16037;SDS011;8123;50.906;6.172;2022-08-30T12:26:47;14.03;;;4.60;;
16037;SDS011;8123;50.906;6.172;2022-08-30T12:29:19;7.63;;;4.43;;
16037;SDS011;8123;50.906;6.172;2022-08-30T12:31:57;11.67;;;5.07;;
16037;SDS011;8123;50.906;6.172;2022-08-30T12:34:29;19.90;;;4.90;;
16037;SDS011;8123;50.906;6.172;2022-08-30T12:37:03;9.13;;;4.17;;
16037;SDS011;8123;50.906;6.172;2022-08-30T12:39:48;24.33;;;4.37;;
16037;SDS011;8123;50.906;6.172;2022-08-30T12:42:49;11.60;;;3.97;;
16037;SDS011;8123;50.906;6.172;2022-08-30T12:45:18;7.43;;;4.93;;
16037;SDS011;8123;50.906;6.172;2022-08-30T12:48:03;13.83;;;4.40;;
16037;SDS011;8123;50.906;6.172;2022-08-30T12:50:36;16.23;;;5.17;;
16037;SDS011;8123;50.906;6.172;2022-08-30T12:53:20;7.67;;;4.27;;
16037;SDS011;8123;50.906;6.172;2022-08-30T12:56:00;15.83;;;5.37;;
16037;SDS011;8123;50.906;6.172;2022-08-30T12:58:49;6.77;;;3.70;;
16037;SDS011;8123;50.906;6.172;2022-08-30T13:01:29;12.87;;;4.50;;
16037;SDS011;8123;50.906;6.172;2022-08-30T13:03:59;7.80;;;3.80;;
16037;SDS011;8123;50.906;6.172;2022-08-30T13:09:23;10.73;;;4.70;;
16037;SDS011;8123;50.906;6.172;2022-08-30T13:11:59;18.23;;;4.87;;
16037;SDS011;8123;50.906;6.172;2022-08-30T13:19:42;15.97;;;4.70;;
16037;SDS011;8123;50.906;6.172;2022-08-30T13:24:52;10.60;;;4.20;;
16037;SDS011;8123;50.906;6.172;2022-08-30T13:27:18;8.03;;;3.43;;
16037;SDS011;8123;50.906;6.172;2022-08-30T13:29:44;17.73;;;5.30;;
16037;SDS011;8123;50.906;6.172;2022-08-30T13:32:10;7.10;;;4.20;;
16037;SDS011;8123;50.906;6.172;2022-08-30T13:34:37;6.47;;;4.07;;
16037;SDS011;8123;50.906;6.172;2022-08-30T13:37:04;11.93;;;4.60;;
16037;SDS011;8123;50.906;6.172;2022-08-30T13:39:31;13.83;;;4.40;;
16037;SDS011;8123;50.906;6.172;2022-08-30T13:41:57;12.40;;;4.37;;
16037;SDS011;8123;50.906;6.172;2022-08-30T13:44:23;9.90;;;4.20;;
16037;SDS011;8123;50.906;6.172;2022-08-30T13:46:50;15.83;;;4.97;;
16037;SDS011;8123;50.906;6.172;2022-08-30T13:49:19;12.17;;;4.80;;
16037;SDS011;8123;50.906;6.172;2022-08-30T13:51:47;10.90;;;3.93;;
16037;SDS011;8123;50.906;6.172;2022-08-30T13:54:15;14.60;;;5.33;;
16037;SDS011;8123;50.906;6.172;2022-08-30T13:56:40;23.53;;;5.33;;
16037;SDS011;8123;50.906;6.172;2022-08-30T13:59:06;22.27;;;5.50;;
16037;SDS011;8123;50.906;6.172;2022-08-30T14:01:32;16.20;;;4.30;;
16037;SDS011;8123;50.906;6.172;2022-08-30T14:03:58;6.87;;;4.17;;
16037;SDS011;8123;50.906;6.172;2022-08-30T14:06:23;10.43;;;4.10;;
16037;SDS011;8123;50.906;6.172;2022-08-30T14:08:49;10.20;;;4.90;;
16037;SDS011;8123;50.906;6.172;2022-08-30T14:11:16;9.40;;;3.93;;
16037;SDS011;8123;50.906;6.172;2022-08-30T14:13:44;9.20;;;5.00;;
16037;SDS011;8123;50.906;6.172;2022-08-30T14:16:11;14.90;;;4.00;;
16037;SDS011;8123;50.906;6.172;2022-08-30T14:18:36;10.90;;;5.10;;
16037;SDS011;8123;50.906;6.172;2022-08-30T14:21:02;10.03;;;4.20;;
16037;SDS011;8123;50.906;6.172;2022-08-30T14:23:28;7.33;;;4.77;;
16037;SDS011;8123;50.906;6.172;2022-08-30T14:25:55;9.63;;;5.00;;
16037;SDS011;8123;50.906;6.172;2022-08-30T14:28:21;24.50;;;4.53;;
16037;SDS011;8123;50.906;6.172;2022-08-30T14:30:47;9.13;;;4.67;;
16037;SDS011;8123;50.906;6.172;2022-08-30T14:33:12;7.83;;;3.60;;
16037;SDS011;8123;50.906;6.172;2022-08-30T14:35:39;12.97;;;5.13;;
16037;SDS011;8123;50.906;6.172;2022-08-30T14:38:05;22.30;;;4.70;;
16037;SDS011;8123;50.906;6.172;2022-08-30T14:40:30;4.97;;;4.07;;
16037;SDS011;8123;50.906;6.172;2022-08-30T14:42:56;17.00;;;3.80;;
16037;SDS011;8123;50.906;6.172;2022-08-30T14:45:22;8.93;;;4.00;;
16037;SDS011;8123;50.906;6.172;2022-08-30T14:47:47;6.83;;;4.57;;
16037;SDS011;8123;50.906;6.172;2022-08-30T14:50:13;9.87;;;4.73;;
16037;SDS011;8123;50.906;6.172;2022-08-30T14:52:39;5.37;;;4.40;;
16037;SDS011;8123;50.906;6.172;2022-08-30T14:55:07;18.00;;;4.83;;
16037;SDS011;8123;50.906;6.172;2022-08-30T14:57:33;8.90;;;4.17;;
16037;SDS011;8123;50.906;6.172;2022-08-30T14:59:59;23.07;;;4.50;;
16037;SDS011;8123;50.906;6.172;2022-08-30T15:02:25;11.83;;;4.20;;
16037;SDS011;8123;50.906;6.172;2022-08-30T15:04:50;9.63;;;4.63;;
16037;SDS011;8123;50.906;6.172;2022-08-30T15:07:16;10.83;;;3.97;;
16037;SDS011;8123;50.906;6.172;2022-08-30T15:09:42;10.10;;;4.30;;
16037;SDS011;8123;50.906;6.172;2022-08-30T15:12:08;8.63;;;4.50;;
16037;SDS011;8123;50.906;6.172;2022-08-30T15:14:34;9.60;;;4.03;;
16037;SDS011;8123;50.906;6.172;2022-08-30T15:17:00;6.30;;;4.40;;
16037;SDS011;8123;50.906;6.172;2022-08-30T15:19:28;8.23;;;4.00;;
16037;SDS011;8123;50.906;6.172;2022-08-30T15:21:57;6.50;;;4.47;;
16037;SDS011;8123;50.906;6.172;2022-08-30T15:24:25;13.53;;;4.83;;
16037;SDS011;8123;50.906;6.172;2022-08-30T15:26:50;11.80;;;4.37;;
16037;SDS011;8123;50.906;6.172;2022-08-30T15:29:17;9.90;;;4.53;;
16037;SDS011;8123;50.906;6.172;2022-08-30T15:31:44;9.60;;;4.93;;
16037;SDS011;8123;50.906;6.172;2022-08-30T15:34:11;8.47;;;3.83;;
16037;SDS011;8123;50.906;6.172;2022-08-30T15:36:39;10.80;;;4.47;;
16037;SDS011;8123;50.906;6.172;2022-08-30T15:39:06;19.60;;;4.27;;
16037;SDS011;8123;50.906;6.172;2022-08-30T15:41:32;16.23;;;4.10;;
16037;SDS011;8123;50.906;6.172;2022-08-30T15:44:01;8.87;;;3.73;;
16037;SDS011;8123;50.906;6.172;2022-08-30T15:46:29;11.90;;;4.53;;
16037;SDS011;8123;50.906;6.172;2022-08-30T15:48:59;11.40;;;3.73;;
16037;SDS011;8123;50.906;6.172;2022-08-30T15:51:28;8.40;;;4.33;;
16037;SDS011;8123;50.906;6.172;2022-08-30T15:53:54;9.27;;;4.07;;
16037;SDS011;8123;50.906;6.172;2022-08-30T15:56:20;9.43;;;4.40;;
16037;SDS011;8123;50.906;6.172;2022-08-30T15:58:46;9.50;;;4.33;;
16037;SDS011;8123;50.906;6.172;2022-08-30T16:01:12;8.50;;;4.10;;
16037;SDS011;8123;50.906;6.172;2022-08-30T16:03:39;6.67;;;3.60;;
16037;SDS011;8123;50.906;6.172;2022-08-30T16:06:15;20.87;;;4.10;;
16037;SDS011;8123;50.906;6.172;2022-08-30T16:08:42;8.47;;;4.50;;
16037;SDS011;8123;50.906;6.172;2022-08-30T16:11:09;14.77;;;3.90;;
16037;SDS011;8123;50.906;6.172;2022-08-30T16:13:37;6.40;;;3.40;;
16037;SDS011;8123;50.906;6.172;2022-08-30T16:16:04;10.33;;;3.70;;
16037;SDS011;8123;50.906;6.172;2022-08-30T16:18:31;8.33;;;3.60;;
16037;SDS011;8123;50.906;6.172;2022-08-30T16:21:05;13.83;;;3.87;;
16037;SDS011;8123;50.906;6.172;2022-08-30T16:23:39;12.13;;;4.30;;
16037;SDS011;8123;50.906;6.172;2022-08-30T16:26:05;12.87;;;4.40;;
16037;SDS011;8123;50.906;6.172;2022-08-30T16:28:32;10.50;;;3.60;;
16037;SDS011;8123;50.906;6.172;2022-08-30T16:30:58;7.90;;;3.43;;
16037;SDS011;8123;50.906;6.172;2022-08-30T16:33:24;7.57;;;4.00;;